Meteorología y climatología de Navarra
Datos de la estación - Meteo Navarra

Estación de Bardenas (El Yugo) GN

Altitud 486 m.


Datos desde el 15/02/2020 hasta el 16/02/2020 en horario solar
Los datos son PROVISIONALES

Anterior Página 1 de 1 Siguiente Descargar: Formato para Excel 2000 o superior   Formato csv   Formato para OpenOffice Calc
Fecha Temperatura Humedad relativa Radiación global Insolación Precipitación Vel. viento 10 m Vel. viento 10 m Dir. viento 10 m
ºC % W/m² s l/m² m/s km/h º
15/02/2020 0:00 9.9 76 0.0 0 0.0 5.1 18.2 328
15/02/2020 0:10 9.6 77 0.0 0 0.0 4.4 15.9 331
15/02/2020 0:20 9.4 78 0.0 0 0.0 4.1 14.8 331
15/02/2020 0:30 9.2 78 0.0 0 0.0 3.9 14.0 339
15/02/2020 0:40 8.9 79 0.0 0 0.0 3.4 12.1 346
15/02/2020 0:50 8.7 80 0.0 0 0.0 3.1 11.1 348
15/02/2020 1:00 8.5 81 0.0 0 0.0 2.8 10.0 348
15/02/2020 1:10 8.4 81 0.0 0 0.0 2.6 9.4 334
15/02/2020 1:20 8.5 81 0.0 0 0.0 2.7 9.8 327
15/02/2020 1:30 8.3 81 0.0 0 0.0 2.9 10.4 344
15/02/2020 1:40 8.0 83 0.0 0 0.0 2.8 9.9 359
15/02/2020 1:50 7.8 84 0.0 0 0.0 2.7 9.6 359
15/02/2020 2:00 7.7 84 0.0 0 0.0 2.6 9.2 1
15/02/2020 2:10 7.5 85 0.0 0 0.0 2.3 8.2 22
15/02/2020 2:20 7.2 86 0.0 0 0.0 1.9 6.9 46
15/02/2020 2:30 7.3 87 0.0 0 0.0 1.9 6.7 41
15/02/2020 2:40 7.4 86 0.0 0 0.0 2.0 7.1 39
15/02/2020 2:50 7.4 86 0.0 0 0.0 2.1 7.4 45
15/02/2020 3:00 7.4 86 0.0 0 0.0 2.2 7.8 43
15/02/2020 3:10 7.3 86 0.0 0 0.0 1.9 7.0 35
15/02/2020 3:20 7.3 86 0.0 0 0.0 1.9 6.9 67
15/02/2020 3:30 7.3 86 0.0 0 0.0 1.6 5.6 60
15/02/2020 3:40 7.4 85 0.0 0 0.0 0.8 3.0 59
15/02/2020 3:50 7.4 85 0.0 0 0.0 0.6 2.3 20
15/02/2020 4:00 7.3 85 0.0 0 0.0 0.5 1.9 333
15/02/2020 4:10 7.0 86 0.0 0 0.0 0.6 2.1 330
15/02/2020 4:20 6.9 87 0.0 0 0.0 0.0 0.1 335
15/02/2020 4:30 6.8 87 0.0 0 0.0 0.4 1.5 303
15/02/2020 4:40 6.4 89 0.0 0 0.0 1.0 3.5 293
15/02/2020 4:50 6.3 90 0.0 0 0.0 1.4 5.0 335
15/02/2020 5:00 6.3 90 0.0 0 0.0 1.4 5.1 347
15/02/2020 5:10 6.2 90 0.0 0 0.0 1.6 5.9 351
15/02/2020 5:20 6.1 91 0.0 0 0.0 2.0 7.2 344
15/02/2020 5:30 6.2 90 0.0 0 0.0 1.7 6.0 342
15/02/2020 5:40 6.2 91 0.0 0 0.0 1.4 5.2 347
15/02/2020 5:50 6.0 91 0.0 0 0.0 1.2 4.2 14
15/02/2020 6:00 5.7 92 0.0 0 0.0 0.8 3.0 34
15/02/2020 6:10 5.5 92 0.0 0 0.0 1.0 3.7 59
15/02/2020 6:20 5.5 92 0.0 0 0.0 1.4 5.0 74
15/02/2020 6:30 5.7 92 0.0 0 0.0 1.5 5.4 81
15/02/2020 6:40 5.6 91 0.0 0 0.0 0.5 1.8 93
15/02/2020 6:50 5.7 91 0.0 0 0.0 0.7 2.6 22
15/02/2020 7:00 5.6 91 0.0 0 0.0 1.5 5.4 16
15/02/2020 7:10 5.5 91 0.0 0 0.0 1.5 5.3 36
15/02/2020 7:20 5.5 91 5.4 0 0.0 2.0 7.1 100
15/02/2020 7:30 4.9 91 30.9 336 0.0 2.0 7.3 82
15/02/2020 7:40 4.9 92 50.4 600 0.0 2.1 7.6 78
15/02/2020 7:50 5.1 92 77.0 600 0.0 2.2 7.7 78
15/02/2020 8:00 5.6 91 102.8 600 0.0 2.4 8.7 77
15/02/2020 8:10 6.0 89 131.1 600 0.0 2.9 10.3 99
15/02/2020 8:20 6.1 88 161.1 600 0.0 2.5 9.0 106
15/02/2020 8:30 6.4 87 189.9 600 0.0 1.8 6.6 101
15/02/2020 8:40 7.1 85 218.1 600 0.0 1.0 3.6 70
15/02/2020 8:50 7.5 83 246.5 600 0.0 1.1 4.0 91
15/02/2020 9:00 8.2 81 274.7 600 0.0 1.2 4.3 148
15/02/2020 9:10 8.3 82 302.2 600 0.0 1.2 4.2 131
15/02/2020 9:20 8.9 79 330.6 600 0.0 1.6 5.6 96
15/02/2020 9:30 8.7 79 356.8 600 0.0 1.4 5.1 109
15/02/2020 9:40 9.3 78 380.4 600 0.0 0.8 3.0 183
15/02/2020 9:50 8.9 80 405.2 600 0.0 1.6 5.7 233
15/02/2020 10:00 8.6 81 427.6 600 0.0 1.0 3.5 277
15/02/2020 10:10 9.2 80 447.4 600 0.0 1.0 3.5 306
15/02/2020 10:20 10.2 77 468.3 600 0.0 0.6 2.0 340
15/02/2020 10:30 10.5 77 489.6 600 0.0 0.7 2.3 238
15/02/2020 10:40 11.2 74 507.2 600 0.0 1.2 4.3 234
15/02/2020 10:50 11.5 73 526.5 600 0.0 0.7 2.6 224
15/02/2020 11:00 11.7 71 543.4 600 0.0 2.1 7.5 213
15/02/2020 11:10 11.7 71 556.4 600 0.0 2.5 9.1 213
15/02/2020 11:20 11.7 72 569.9 600 0.0 2.2 7.9 208
15/02/2020 11:30 12.1 71 578.6 600 0.0 1.7 6.2 208
15/02/2020 11:40 12.2 70 588.3 600 0.0 1.9 6.9 216
15/02/2020 11:50 12.7 68 596.3 600 0.0 0.9 3.4 152
15/02/2020 12:00 13.4 66 602.3 600 0.0 1.4 4.9 122
15/02/2020 12:10 13.7 65 603.9 600 0.0 1.7 6.2 95
15/02/2020 12:20 13.5 66 603.4 600 0.0 1.8 6.5 96
15/02/2020 12:30 13.6 67 606.7 600 0.0 1.7 6.1 90
15/02/2020 12:40 13.8 66 606.9 600 0.0 2.2 7.8 87
15/02/2020 12:50 14.3 65 609.0 600 0.0 2.1 7.4 113
15/02/2020 13:00 14.6 64 590.0 600 0.0 1.7 6.2 110
15/02/2020 13:10 14.8 64 625.3 600 0.0 2.3 8.4 110
15/02/2020 13:20 15.1 64 610.7 600 0.0 2.7 9.6 107
15/02/2020 13:30 15.1 64 617.5 600 0.0 3.1 11.2 113
15/02/2020 13:40 15.3 64 515.8 600 0.0 3.1 11.2 114
15/02/2020 13:50 14.9 65 425.4 600 0.0 3.1 11.0 119
15/02/2020 14:00 15.3 64 471.1 600 0.0 3.6 12.8 116
15/02/2020 14:10 15.6 62 380.0 590 0.0 3.0 10.9 114
15/02/2020 14:20 15.5 63 394.8 600 0.0 2.7 9.6 123
15/02/2020 14:30 16.3 61 421.9 600 0.0 2.8 10.0 178
15/02/2020 14:40 16.4 59 324.5 600 0.0 2.6 9.4 171
15/02/2020 14:50 16.2 58 278.4 600 0.0 2.1 7.6 158
15/02/2020 15:00 16.1 59 299.1 600 0.0 1.2 4.5 150
15/02/2020 15:10 16.4 59 303.6 600 0.0 1.6 5.7 155
15/02/2020 15:20 16.8 58 282.8 600 0.0 1.4 5.1 194
15/02/2020 15:30 16.7 59 319.8 600 0.0 1.7 6.0 192
15/02/2020 15:40 16.5 59 230.8 544 0.0 1.7 6.2 151
15/02/2020 15:50 15.5 61 152.7 0 0.0 2.7 9.9 133
15/02/2020 16:00 15.0 63 125.9 0 0.0 2.8 10.1 133
15/02/2020 16:10 14.7 65 106.5 0 0.0 2.2 8.1 143
15/02/2020 16:20 14.5 65 84.6 0 0.0 2.3 8.4 133
15/02/2020 16:30 14.2 65 75.9 0 0.0 2.0 7.3 141
15/02/2020 16:40 14.1 65 66.4 0 0.0 1.3 4.5 150
15/02/2020 16:50 14.1 65 47.1 0 0.0 0.4 1.5 140
15/02/2020 17:00 14.0 64 33.1 0 0.0 0.3 1.1 157
15/02/2020 17:10 13.8 66 16.1 0 0.0 0.7 2.5 216
15/02/2020 17:20 13.6 67 0.0 0 0.0 0.7 2.5 239
15/02/2020 17:30 13.2 70 0.0 0 0.0 1.6 5.8 284
15/02/2020 17:40 12.7 73 0.0 0 0.0 1.9 6.9 284
15/02/2020 17:50 12.6 73 0.0 0 0.0 1.8 6.4 290
15/02/2020 18:00 12.5 73 0.0 0 0.0 1.5 5.3 314
15/02/2020 18:10 12.7 72 0.0 0 0.0 1.0 3.5 20
15/02/2020 18:20 12.7 71 0.0 0 0.0 1.0 3.6 328
15/02/2020 18:30 12.5 72 0.0 0 0.0 1.1 3.9 314
15/02/2020 18:40 12.4 72 0.0 0 0.0 0.3 1.1 306
15/02/2020 18:50 12.5 73 0.0 0 0.0 0.1 0.3 306
15/02/2020 19:00 12.5 72 0.0 0 0.0 1.4 4.9 215
15/02/2020 19:10 12.0 74 0.0 0 0.0 1.6 5.7 228
15/02/2020 19:20 11.9 75 0.0 0 0.0 1.4 5.1 230
15/02/2020 19:30 12.0 74 0.0 0 0.0 1.7 6.0 242
15/02/2020 19:40 12.0 74 0.0 0 0.0 1.7 6.0 216
15/02/2020 19:50 11.8 75 0.0 0 0.0 2.0 7.1 194
15/02/2020 20:00 11.6 76 0.0 0 0.0 2.7 9.9 183
15/02/2020 20:10 11.3 77 0.0 0 0.0 2.7 9.9 181
15/02/2020 20:20 11.0 78 0.0 0 0.0 3.3 11.7 176
15/02/2020 20:30 10.9 79 0.0 0 0.0 3.6 12.9 170
15/02/2020 20:40 11.0 78 0.0 0 0.0 3.3 11.8 168
15/02/2020 20:50 10.9 79 0.0 0 0.0 3.0 10.7 154
15/02/2020 21:00 10.7 79 0.0 0 0.0 3.6 12.9 166
15/02/2020 21:10 10.6 79 0.0 0 0.0 3.8 13.8 170
15/02/2020 21:20 10.6 79 0.0 0 0.0 3.7 13.5 167
15/02/2020 21:30 10.4 80 0.0 0 0.0 3.6 13.0 174
15/02/2020 21:40 10.4 81 0.0 0 0.0 4.2 15.1 167
15/02/2020 21:50 10.6 80 0.0 0 0.0 4.1 14.7 160
15/02/2020 22:00 10.6 79 0.0 0 0.0 3.3 11.8 165
15/02/2020 22:10 10.4 80 0.0 0 0.0 3.2 11.4 162
15/02/2020 22:20 10.4 80 0.0 0 0.0 2.9 10.5 163
15/02/2020 22:30 10.2 80 0.0 0 0.0 2.8 9.9 162
15/02/2020 22:40 10.1 81 0.0 0 0.0 2.5 8.9 146
15/02/2020 22:50 9.8 82 0.0 0 0.0 2.5 8.9 116
15/02/2020 23:00 9.3 84 0.0 0 0.0 2.6 9.3 107
15/02/2020 23:10 8.8 87 0.0 0 0.0 3.6 12.9 118
15/02/2020 23:20 8.7 88 0.0 0 0.0 4.3 15.6 121
15/02/2020 23:30 8.6 89 0.0 0 0.0 5.2 18.9 119
15/02/2020 23:40 8.6 89 0.0 0 0.0 5.1 18.4 118
15/02/2020 23:50 8.8 89 0.0 0 0.0 5.3 18.9 112
Anterior Página 1 de 1 Siguiente

NOTA: Tipo de datos según el color:
   - Valores diarios o 10 minutos correctos
   - Valores diarios calculados a partir de un número de datos 10 minutos menor que 144 y mayor que 120, o de un número de datos semihorarios menor que 48 y mayor que 40 (caso de las estaciones de INTIA y del Ministerio)
   - Valores diez minutos estimados


Contacto        Enlaces        Aviso legal